createdAt,value
2019-05-18T00:01:33.182Z,8.57
2019-05-18T00:04:02.051Z,6.57
2019-05-18T00:06:30.895Z,7.53
2019-05-18T00:08:59.843Z,6.73
2019-05-18T00:11:28.774Z,7.17
2019-05-18T00:13:57.660Z,7.07
2019-05-18T00:16:26.576Z,7.63
2019-05-18T00:18:55.449Z,8.83
2019-05-18T00:21:24.827Z,6.50
2019-05-18T00:23:54.083Z,7.60
2019-05-18T00:26:23.155Z,6.33
2019-05-18T00:28:52.011Z,7.67
2019-05-18T00:31:21.201Z,8.53
2019-05-18T00:33:50.032Z,13.10
2019-05-18T00:36:18.951Z,11.40
2019-05-18T00:38:47.859Z,8.50
2019-05-18T00:41:16.709Z,7.10
2019-05-18T00:43:45.590Z,7.33
2019-05-18T00:46:14.511Z,7.10
2019-05-18T00:48:43.430Z,6.67
2019-05-18T00:51:12.324Z,7.27
2019-05-18T00:53:41.228Z,7.83
2019-05-18T00:56:10.095Z,12.67
2019-05-18T00:58:38.952Z,16.20
2019-05-18T01:01:07.839Z,9.20
2019-05-18T01:03:36.823Z,8.73
2019-05-18T01:06:05.627Z,10.47
2019-05-18T01:08:34.615Z,6.80
2019-05-18T01:11:03.412Z,7.30
2019-05-18T01:13:32.340Z,9.70
2019-05-18T01:16:01.294Z,10.10
2019-05-18T01:18:30.182Z,9.53
2019-05-18T01:20:59.635Z,8.40
2019-05-18T01:23:28.559Z,8.37
2019-05-18T01:25:57.411Z,8.87
2019-05-18T01:28:26.480Z,9.30
2019-05-18T01:30:55.359Z,7.33
2019-05-18T01:33:24.418Z,7.63
2019-05-18T01:35:53.264Z,7.60
2019-05-18T01:38:22.248Z,9.67
2019-05-18T01:40:51.191Z,9.37
2019-05-18T01:43:20.197Z,13.40
2019-05-18T01:45:49.052Z,16.37
2019-05-18T01:48:17.951Z,16.90
2019-05-18T01:50:46.884Z,19.40
2019-05-18T01:53:15.844Z,17.23
2019-05-18T01:55:44.653Z,11.53
2019-05-18T01:58:13.655Z,10.77
2019-05-18T02:00:42.476Z,10.67
2019-05-18T02:03:11.387Z,10.87
2019-05-18T02:05:40.202Z,8.43
2019-05-18T02:08:09.112Z,8.77
2019-05-18T02:10:38.062Z,10.90
2019-05-18T02:13:06.945Z,9.67
2019-05-18T02:15:35.953Z,13.17
2019-05-18T02:18:04.813Z,10.07
2019-05-18T02:20:33.657Z,11.47
2019-05-18T02:23:02.602Z,8.97
2019-05-18T02:25:31.665Z,7.77
2019-05-18T02:28:00.526Z,9.63
2019-05-18T02:30:29.413Z,12.90
2019-05-18T02:32:58.291Z,10.27
2019-05-18T02:35:27.264Z,8.60
2019-05-18T02:37:57.696Z,10.97
2019-05-18T02:40:26.573Z,11.03
2019-05-18T02:42:55.496Z,9.97
2019-05-18T02:45:24.430Z,10.63
2019-05-18T02:47:53.376Z,15.30
2019-05-18T02:50:22.212Z,13.40
2019-05-18T02:52:51.105Z,9.97
2019-05-18T02:55:20.008Z,12.53
2019-05-18T02:57:48.874Z,10.37
2019-05-18T03:00:17.714Z,7.83
2019-05-18T03:02:46.620Z,7.87
2019-05-18T03:05:15.454Z,9.67
2019-05-18T03:07:44.342Z,8.90
2019-05-18T03:10:13.336Z,8.83
2019-05-18T03:12:42.533Z,9.30
2019-05-18T03:15:11.667Z,8.23
2019-05-18T03:17:40.573Z,11.07
2019-05-18T03:20:11.006Z,11.50
2019-05-18T03:22:39.895Z,7.73
2019-05-18T03:25:08.826Z,7.57
2019-05-18T03:27:37.745Z,8.00
2019-05-18T03:30:08.137Z,13.23
2019-05-18T03:32:37.019Z,8.33
2019-05-18T03:35:06.142Z,11.23
2019-05-18T03:37:35.095Z,9.60
2019-05-18T03:40:05.320Z,9.70
2019-05-18T03:42:34.355Z,9.27
2019-05-18T03:45:03.285Z,8.90
2019-05-18T03:47:32.096Z,9.20
2019-05-18T03:50:00.993Z,11.53
2019-05-18T03:52:29.875Z,8.90
2019-05-18T03:54:58.746Z,9.77
2019-05-18T03:57:27.724Z,11.60
2019-05-18T03:59:56.657Z,12.27
2019-05-18T04:02:25.564Z,12.13
2019-05-18T04:04:54.476Z,8.40
2019-05-18T04:07:23.415Z,11.00
2019-05-18T04:09:52.277Z,11.17
2019-05-18T04:12:21.203Z,12.43
2019-05-18T04:14:50.037Z,10.00
2019-05-18T04:17:18.994Z,10.87
2019-05-18T04:19:47.871Z,11.40
2019-05-18T04:22:16.778Z,11.87
2019-05-18T04:24:45.601Z,9.23
2019-05-18T04:27:14.568Z,10.00
2019-05-18T04:29:43.376Z,10.03
2019-05-18T04:32:12.236Z,12.80
2019-05-18T04:34:41.123Z,10.07
2019-05-18T04:37:09.980Z,10.93
2019-05-18T04:39:38.887Z,9.20
2019-05-18T04:42:07.785Z,11.90
2019-05-18T04:44:36.824Z,9.30
2019-05-18T04:47:05.779Z,9.87
2019-05-18T04:49:34.672Z,11.23
2019-05-18T04:52:03.584Z,9.73
2019-05-18T04:54:32.564Z,12.83
2019-05-18T04:57:01.405Z,9.93
2019-05-18T04:59:30.308Z,10.43
2019-05-18T05:01:59.212Z,10.17
2019-05-18T05:04:28.184Z,13.47
2019-05-18T05:06:57.106Z,15.33
2019-05-18T05:09:26.033Z,10.50
2019-05-18T05:11:54.955Z,11.63
2019-05-18T05:14:23.842Z,12.30
2019-05-18T05:16:52.743Z,14.87
2019-05-18T05:19:21.623Z,13.00
2019-05-18T05:21:50.523Z,15.03
2019-05-18T05:24:19.414Z,19.77
2019-05-18T05:26:48.259Z,21.30
2019-05-18T05:29:17.258Z,18.07
2019-05-18T05:31:46.132Z,17.30
2019-05-18T05:34:15.064Z,20.57
2019-05-18T05:36:43.966Z,31.10
2019-05-18T05:39:12.899Z,24.00
2019-05-18T05:41:41.822Z,22.40
2019-05-18T05:44:10.684Z,34.93
2019-05-18T05:46:39.587Z,27.73
2019-05-18T05:49:08.633Z,27.83
2019-05-18T05:51:37.544Z,31.17
2019-05-18T05:54:06.359Z,29.73
2019-05-18T05:56:35.303Z,28.10
2019-05-18T05:59:04.259Z,26.83
2019-05-18T06:01:33.131Z,30.10
2019-05-18T06:04:02.035Z,29.03
2019-05-18T06:06:30.917Z,32.17
2019-05-18T06:08:59.836Z,25.17
2019-05-18T06:11:28.757Z,30.67
2019-05-18T06:13:57.647Z,25.33
2019-05-18T06:16:26.617Z,25.23
2019-05-18T06:18:55.529Z,26.67
2019-05-18T06:21:24.379Z,25.77
2019-05-18T06:23:53.309Z,28.03
2019-05-18T06:26:24.252Z,31.13
2019-05-18T06:28:52.886Z,26.37
2019-05-18T06:31:23.240Z,26.23
2019-05-18T06:33:52.252Z,24.23
2019-05-18T06:36:21.239Z,26.17
2019-05-18T06:38:50.200Z,26.17
2019-05-18T06:41:19.125Z,23.83
2019-05-18T06:43:47.984Z,27.47
2019-05-18T06:46:16.898Z,23.33
2019-05-18T06:48:45.752Z,24.37
2019-05-18T06:51:14.682Z,25.37
2019-05-18T06:53:43.554Z,24.17
2019-05-18T06:56:14.247Z,24.70
2019-05-18T06:58:43.295Z,24.97
2019-05-18T07:01:12.195Z,26.50
2019-05-18T07:03:41.121Z,24.33
2019-05-18T07:06:09.993Z,24.07
2019-05-18T07:08:38.918Z,27.70
2019-05-18T07:11:07.838Z,23.57
2019-05-18T07:13:36.767Z,26.87
2019-05-18T07:16:05.742Z,22.13
2019-05-18T07:18:34.578Z,21.97
2019-05-18T07:21:03.504Z,21.10
2019-05-18T07:23:32.360Z,21.63
2019-05-18T07:26:01.240Z,21.30
2019-05-18T07:28:30.122Z,23.87
2019-05-18T07:30:59.020Z,20.20
2019-05-18T07:33:29.443Z,20.50
2019-05-18T07:35:58.324Z,20.07
2019-05-18T07:38:28.913Z,19.93
2019-05-18T07:40:57.805Z,19.97
2019-05-18T07:43:26.812Z,21.27
2019-05-18T07:45:55.707Z,22.03
2019-05-18T07:48:24.632Z,19.53
2019-05-18T07:50:53.550Z,22.37
2019-05-18T07:53:22.457Z,23.07
2019-05-18T07:55:51.395Z,24.93
2019-05-18T07:58:20.222Z,23.77
2019-05-18T08:00:49.126Z,21.00
2019-05-18T08:03:17.996Z,22.13
2019-05-18T08:05:46.941Z,22.30
2019-05-18T08:08:15.998Z,21.60
2019-05-18T08:10:44.938Z,22.27
2019-05-18T08:13:13.872Z,21.30
2019-05-18T08:15:42.725Z,19.73
2019-05-18T08:18:11.605Z,19.70
2019-05-18T08:20:40.474Z,18.93
2019-05-18T08:23:09.408Z,20.17
2019-05-18T08:25:38.292Z,21.60
2019-05-18T08:28:07.215Z,21.20
2019-05-18T08:30:36.079Z,20.23
2019-05-18T08:33:04.990Z,20.60
2019-05-18T08:35:33.867Z,18.67
2019-05-18T08:38:02.775Z,23.47
2019-05-18T08:40:31.765Z,20.10
2019-05-18T08:43:00.624Z,19.07
2019-05-18T08:45:29.480Z,20.97
2019-05-18T08:47:58.396Z,20.33
2019-05-18T08:50:27.296Z,19.87
2019-05-18T08:52:56.197Z,18.93
2019-05-18T08:55:25.075Z,18.23
2019-05-18T08:57:54.046Z,19.43
2019-05-18T09:00:23.242Z,16.83
2019-05-18T09:02:52.157Z,18.67
2019-05-18T09:05:21.178Z,17.13
2019-05-18T09:07:50.033Z,19.77
2019-05-18T09:10:19.263Z,17.23
2019-05-18T09:12:48.222Z,20.03
2019-05-18T09:15:17.100Z,18.33
2019-05-18T09:17:45.984Z,19.80
2019-05-18T09:20:17.058Z,17.97
2019-05-18T09:22:45.909Z,18.67
2019-05-18T09:25:15.125Z,17.70
2019-05-18T09:27:44.072Z,18.00
2019-05-18T09:30:13.512Z,20.50
2019-05-18T09:32:42.467Z,17.40
2019-05-18T09:35:11.568Z,17.80
2019-05-18T09:37:40.435Z,16.90
2019-05-18T09:40:09.777Z,18.80
2019-05-18T09:42:38.801Z,17.33
2019-05-18T09:45:09.653Z,17.10
2019-05-18T09:47:38.563Z,18.63
2019-05-18T09:50:09.029Z,17.60
2019-05-18T09:52:46.105Z,16.90
2019-05-18T09:55:09.552Z,16.70
2019-05-18T09:57:38.479Z,17.17
2019-05-18T10:00:09.622Z,17.60
2019-05-18T10:02:38.534Z,16.70
2019-05-18T10:05:08.464Z,16.20
2019-05-18T10:07:37.412Z,17.33
2019-05-18T10:10:08.057Z,15.43
2019-05-18T10:12:37.031Z,16.50
2019-05-18T10:15:07.288Z,16.50
2019-05-18T10:17:36.206Z,16.40
2019-05-18T10:20:07.351Z,16.90
2019-05-18T10:22:36.287Z,16.77
2019-05-18T10:25:06.634Z,15.20
2019-05-18T10:27:35.534Z,16.23
2019-05-18T10:30:09.332Z,17.83
2019-05-18T10:32:38.218Z,15.37
2019-05-18T10:35:07.920Z,16.60
2019-05-18T10:37:36.803Z,18.30
2019-05-18T10:40:07.698Z,17.30
2019-05-18T10:42:36.626Z,15.93
2019-05-18T10:45:09.146Z,15.50
2019-05-18T10:47:38.026Z,16.00
2019-05-18T10:50:07.854Z,16.53
2019-05-18T10:52:37.537Z,17.73
2019-05-18T10:55:08.566Z,15.83
2019-05-18T10:57:37.491Z,15.50
2019-05-18T11:00:08.313Z,15.87
2019-05-18T11:02:37.192Z,17.40
2019-05-18T11:05:09.255Z,28.93
2019-05-18T11:07:38.111Z,16.53
2019-05-18T11:10:10.963Z,16.60
2019-05-18T11:12:39.853Z,15.87
2019-05-18T11:15:09.593Z,17.37
2019-05-18T11:17:38.625Z,17.37
2019-05-18T11:20:09.868Z,15.80
2019-05-18T11:22:38.724Z,17.43
2019-05-18T11:25:08.845Z,17.37
2019-05-18T11:27:37.708Z,17.63
2019-05-18T11:30:08.632Z,18.13
2019-05-18T11:32:38.080Z,18.07
2019-05-18T11:35:08.848Z,18.43
2019-05-18T11:37:37.740Z,19.33
2019-05-18T11:40:08.840Z,18.17
2019-05-18T11:42:37.723Z,19.23
2019-05-18T11:45:12.529Z,18.73
2019-05-18T11:47:41.512Z,19.97
2019-05-18T11:50:11.453Z,18.73
2019-05-18T11:52:40.324Z,18.37
2019-05-18T11:55:09.824Z,19.97
2019-05-18T11:57:38.679Z,20.60
2019-05-18T12:00:09.718Z,18.97
2019-05-18T12:02:38.541Z,19.63
2019-05-18T12:05:07.948Z,18.30
2019-05-18T12:07:36.808Z,18.80
2019-05-18T12:10:09.402Z,18.23
2019-05-18T12:12:38.297Z,18.57
2019-05-18T12:15:08.895Z,19.20
2019-05-18T12:17:37.763Z,18.30
2019-05-18T12:20:08.022Z,18.17
2019-05-18T12:22:37.156Z,18.17
2019-05-18T12:25:07.226Z,21.90
2019-05-18T12:27:36.148Z,18.20
2019-05-18T12:30:07.098Z,18.23
2019-05-18T12:32:36.027Z,19.23
2019-05-18T12:35:06.599Z,17.20
2019-05-18T12:37:35.545Z,17.87
2019-05-18T12:40:08.171Z,18.43
2019-05-18T12:42:37.071Z,18.10
2019-05-18T12:45:08.861Z,17.00
2019-05-18T12:47:37.750Z,17.77
2019-05-18T12:50:08.490Z,18.07
2019-05-18T12:55:12.057Z,17.23
2019-05-18T12:57:41.007Z,17.40
2019-05-18T13:00:15.385Z,17.20
2019-05-18T13:02:44.301Z,17.57
2019-05-18T13:05:13.283Z,17.10
2019-05-18T13:07:42.241Z,16.73
2019-05-18T13:10:12.075Z,17.17
2019-05-18T13:12:41.007Z,18.10
2019-05-18T13:15:11.242Z,18.23
2019-05-18T13:17:40.165Z,18.10
2019-05-18T13:20:10.405Z,17.87
2019-05-18T13:22:39.325Z,18.10
2019-05-18T13:25:08.866Z,17.17
2019-05-18T13:27:39.756Z,17.10
2019-05-18T13:30:09.837Z,17.70
2019-05-18T13:32:38.679Z,17.13
2019-05-18T13:35:08.502Z,17.73
2019-05-18T13:37:37.475Z,16.50
2019-05-18T13:40:07.592Z,17.00
2019-05-18T13:42:36.527Z,17.13
2019-05-18T13:45:07.462Z,17.63
2019-05-18T13:47:36.352Z,19.43
2019-05-18T13:50:06.514Z,16.90
2019-05-18T13:52:35.535Z,17.00
2019-05-18T13:55:05.964Z,17.60
2019-05-18T13:57:35.175Z,16.47
2019-05-18T14:00:06.539Z,17.40
2019-05-18T14:02:35.767Z,17.83
2019-05-18T14:05:06.320Z,17.07
2019-05-18T14:07:35.430Z,17.27
2019-05-18T14:10:06.956Z,18.30
2019-05-18T14:12:36.123Z,17.70
2019-05-18T14:15:06.313Z,17.43
2019-05-18T14:17:35.223Z,17.33
2019-05-18T14:20:04.987Z,17.00
2019-05-18T14:22:33.875Z,16.67
2019-05-18T14:25:10.570Z,18.03
2019-05-18T14:27:33.394Z,17.23
2019-05-18T14:30:02.329Z,16.20
2019-05-18T14:32:31.274Z,16.00
2019-05-18T14:35:00.334Z,15.93
2019-05-18T14:37:29.206Z,16.70
2019-05-18T14:39:58.118Z,16.23
2019-05-18T14:42:27.061Z,16.13
2019-05-18T14:44:55.941Z,16.67
2019-05-18T14:47:27.395Z,16.40
2019-05-18T14:49:55.394Z,16.00
2019-05-18T14:52:24.389Z,17.27
2019-05-18T14:54:53.348Z,17.33
2019-05-18T14:57:25.460Z,17.60
2019-05-18T14:59:52.797Z,17.03
2019-05-18T15:02:21.691Z,16.73
2019-05-18T15:04:53.387Z,20.37
2019-05-18T15:07:21.159Z,18.23
2019-05-18T15:09:50.149Z,17.73
2019-05-18T15:12:19.000Z,17.67
2019-05-18T15:14:47.910Z,17.77
2019-05-18T15:17:16.872Z,18.93
2019-05-18T15:19:45.793Z,17.83
2019-05-18T15:22:14.696Z,19.10
2019-05-18T15:24:43.562Z,17.20
2019-05-18T15:27:12.466Z,16.67
2019-05-18T15:29:41.365Z,18.77
2019-05-18T15:32:10.264Z,16.27
2019-05-18T15:34:39.182Z,17.30
2019-05-18T15:37:08.075Z,16.67
2019-05-18T15:39:38.317Z,17.40
2019-05-18T15:42:08.631Z,16.80
2019-05-18T15:44:37.560Z,17.03
2019-05-18T15:47:06.436Z,16.13
2019-05-18T15:49:35.605Z,16.27
2019-05-18T15:52:05.408Z,16.77
2019-05-18T15:54:36.194Z,17.80
2019-05-18T15:57:05.538Z,15.70
2019-05-18T15:59:34.437Z,15.93
2019-05-18T16:02:06.396Z,16.43
2019-05-18T16:04:33.867Z,17.43
2019-05-18T16:07:02.717Z,16.40
2019-05-18T16:09:31.620Z,15.80
2019-05-18T16:12:00.591Z,16.23
2019-05-18T16:14:30.135Z,17.57
2019-05-18T16:16:59.025Z,17.53
2019-05-18T16:19:27.858Z,17.63
2019-05-18T16:21:56.843Z,18.17
2019-05-18T16:24:25.688Z,16.40
2019-05-18T16:26:54.629Z,15.67
2019-05-18T16:29:23.438Z,17.40
2019-05-18T16:31:52.482Z,18.23
2019-05-18T16:34:21.335Z,17.20
2019-05-18T16:36:50.262Z,17.37
2019-05-18T16:39:19.120Z,17.47
2019-05-18T16:41:48.035Z,16.97
2019-05-18T16:44:16.911Z,18.70
2019-05-18T16:46:45.836Z,18.50
2019-05-18T16:49:14.715Z,18.27
2019-05-18T16:51:43.640Z,16.53
2019-05-18T16:54:12.498Z,20.23
2019-05-18T16:56:41.418Z,20.93
2019-05-18T16:59:10.319Z,20.67
2019-05-18T17:01:39.259Z,17.23
2019-05-18T17:04:08.102Z,20.90
2019-05-18T17:06:37.008Z,20.73
2019-05-18T17:09:06.420Z,22.80
2019-05-18T17:11:35.307Z,20.37
2019-05-18T17:14:04.335Z,23.53
2019-05-18T17:16:33.242Z,20.43
2019-05-18T17:19:02.133Z,19.60
2019-05-18T17:21:31.020Z,21.10
2019-05-18T17:23:59.935Z,23.43
2019-05-18T17:26:28.818Z,20.87
2019-05-18T17:28:57.742Z,23.90
2019-05-18T17:31:26.634Z,21.83
2019-05-18T17:33:55.502Z,23.90
2019-05-18T17:36:24.400Z,21.00
2019-05-18T17:38:53.234Z,24.43
2019-05-18T17:41:22.062Z,20.40
2019-05-18T17:43:50.970Z,25.80
2019-05-18T17:46:19.836Z,27.17
2019-05-18T17:48:48.697Z,20.57
2019-05-18T17:51:17.617Z,22.73
2019-05-18T17:53:46.519Z,22.63
2019-05-18T17:56:15.440Z,21.67
2019-05-18T17:58:44.303Z,19.73
2019-05-18T18:01:13.212Z,24.30
2019-05-18T18:03:42.082Z,20.17
2019-05-18T18:06:11.001Z,22.73
2019-05-18T18:08:39.852Z,24.23
2019-05-18T18:11:11.795Z,22.73
2019-05-18T18:13:39.312Z,22.77
2019-05-18T18:16:08.276Z,21.00
2019-05-18T18:18:37.130Z,20.63
2019-05-18T18:21:06.453Z,20.90
2019-05-18T18:23:35.300Z,23.90
2019-05-18T18:26:04.204Z,22.47
2019-05-18T18:28:33.074Z,23.03
2019-05-18T18:31:02.359Z,20.37
2019-05-18T18:33:31.246Z,23.80
2019-05-18T18:36:00.112Z,24.57
2019-05-18T18:38:29.939Z,21.50
2019-05-18T18:40:58.773Z,31.27
2019-05-18T18:43:27.718Z,24.20
2019-05-18T18:45:56.584Z,25.50
2019-05-18T18:48:26.563Z,28.30
2019-05-18T18:50:55.561Z,38.70
2019-05-18T18:53:24.468Z,81.13
2019-05-18T18:55:53.339Z,34.23
2019-05-18T18:58:22.238Z,32.43
2019-05-18T19:00:51.092Z,25.53
2019-05-18T19:03:20.015Z,44.90
2019-05-18T19:05:48.862Z,28.57
2019-05-18T19:08:17.829Z,25.23
2019-05-18T19:10:46.660Z,21.33
2019-05-18T19:13:15.575Z,28.97
2019-05-18T19:15:44.486Z,44.23
2019-05-18T19:18:13.328Z,37.80
2019-05-18T19:20:42.227Z,22.00
2019-05-18T19:23:11.129Z,33.33
2019-05-18T19:25:40.028Z,26.73
2019-05-18T19:28:08.866Z,24.23
2019-05-18T19:30:37.957Z,35.10
2019-05-18T19:33:06.917Z,22.40
2019-05-18T19:35:35.836Z,29.20
2019-05-18T19:38:04.887Z,25.43
2019-05-18T19:40:33.855Z,28.17
2019-05-18T19:43:02.809Z,28.43
2019-05-18T19:45:31.685Z,24.30
2019-05-18T19:48:00.587Z,21.30
2019-05-18T19:50:29.445Z,27.57
2019-05-18T19:52:58.303Z,25.23
2019-05-18T19:55:27.244Z,24.33
2019-05-18T19:58:08.131Z,22.73
2019-05-18T20:00:26.764Z,31.87
2019-05-18T20:02:55.670Z,24.67
2019-05-18T20:05:24.556Z,24.43
2019-05-18T20:07:53.489Z,56.53
2019-05-18T20:10:22.545Z,211.77
2019-05-18T20:12:51.513Z,73.23
2019-05-18T20:15:20.383Z,43.57
2019-05-18T20:17:49.248Z,25.33
2019-05-18T20:20:19.488Z,22.03
2019-05-18T20:22:48.368Z,23.80
2019-05-18T20:25:17.452Z,24.67
2019-05-18T20:27:46.345Z,22.63
2019-05-18T20:30:15.357Z,22.17
2019-05-18T20:32:44.214Z,20.80
2019-05-18T20:35:13.559Z,23.60
2019-05-18T20:37:42.398Z,21.73
2019-05-18T20:40:11.880Z,20.63
2019-05-18T20:42:40.801Z,24.80
2019-05-18T20:45:09.960Z,21.43
2019-05-18T20:47:38.817Z,19.67
2019-05-18T20:50:08.329Z,25.53
2019-05-18T20:52:37.287Z,21.53
2019-05-18T20:55:06.357Z,21.83
2019-05-18T20:57:35.312Z,24.03
2019-05-18T21:00:04.957Z,21.47
2019-05-18T21:02:33.810Z,21.37
2019-05-18T21:05:02.755Z,21.27
2019-05-18T21:07:31.703Z,23.77
2019-05-18T21:10:00.628Z,21.13
2019-05-18T21:12:29.564Z,23.67
2019-05-18T21:14:58.499Z,24.73
2019-05-18T21:17:27.411Z,30.47
2019-05-18T21:19:56.340Z,23.13
2019-05-18T21:22:25.241Z,25.90
2019-05-18T21:24:54.163Z,24.47
2019-05-18T21:27:23.018Z,21.17
2019-05-18T21:29:51.944Z,25.83
2019-05-18T21:32:20.863Z,20.07
2019-05-18T21:34:49.765Z,22.50
2019-05-18T21:37:18.683Z,24.70
2019-05-18T21:39:47.543Z,22.70
2019-05-18T21:42:16.440Z,25.83
2019-05-18T21:44:45.376Z,24.03
2019-05-18T21:47:14.217Z,25.87
2019-05-18T21:49:43.325Z,23.07
2019-05-18T21:52:12.232Z,26.07
2019-05-18T21:54:41.163Z,25.93
2019-05-18T21:57:09.991Z,29.23
2019-05-18T21:59:38.918Z,26.17
2019-05-18T22:02:07.918Z,23.97
2019-05-18T22:04:36.796Z,26.50
2019-05-18T22:07:05.734Z,27.20
2019-05-18T22:09:34.664Z,29.37
2019-05-18T22:12:07.151Z,32.83
2019-05-18T22:14:36.017Z,28.43
2019-05-18T22:17:04.934Z,28.17
2019-05-18T22:19:33.857Z,25.80
2019-05-18T22:22:02.697Z,29.90
2019-05-18T22:24:31.634Z,28.30
2019-05-18T22:27:00.556Z,29.97
2019-05-18T22:29:29.505Z,29.97
2019-05-18T22:31:58.397Z,31.63
2019-05-18T22:34:27.326Z,31.37
2019-05-18T22:36:56.280Z,31.77
2019-05-18T22:39:26.716Z,31.70
2019-05-18T22:41:55.737Z,31.27
2019-05-18T22:44:24.661Z,30.43
2019-05-18T22:46:53.584Z,28.97
2019-05-18T22:49:22.435Z,29.40
2019-05-18T22:51:51.666Z,32.70
2019-05-18T22:54:20.544Z,31.33
2019-05-18T22:56:49.454Z,28.37
2019-05-18T22:59:18.293Z,29.17
2019-05-18T23:01:47.236Z,30.27
2019-05-18T23:04:16.095Z,31.07
2019-05-18T23:06:45.001Z,33.10
2019-05-18T23:09:13.875Z,28.17
2019-05-18T23:11:42.827Z,29.87
2019-05-18T23:14:11.779Z,29.40
2019-05-18T23:16:40.869Z,32.83
2019-05-18T23:19:09.813Z,30.13
2019-05-18T23:21:38.687Z,31.97
2019-05-18T23:24:07.572Z,28.83
2019-05-18T23:26:36.473Z,31.17
2019-05-18T23:29:05.292Z,32.73
2019-05-18T23:31:34.190Z,31.03
2019-05-18T23:34:03.115Z,31.47
2019-05-18T23:36:32.077Z,31.57
2019-05-18T23:39:00.984Z,31.10
2019-05-18T23:41:29.822Z,34.57
2019-05-18T23:43:58.839Z,32.47
2019-05-18T23:46:27.765Z,33.50
2019-05-18T23:49:08.722Z,34.33
2019-05-18T23:51:27.202Z,31.93
2019-05-18T23:53:58.231Z,32.37
2019-05-18T23:56:27.116Z,36.87
2019-05-18T23:58:56.103Z,32.77
